createdAt,value
2023-02-25T00:02:24.852Z,10.12
2023-02-25T00:05:26.660Z,10.13
2023-02-25T00:08:28.482Z,10.13
2023-02-25T00:11:30.387Z,10.12
2023-02-25T00:14:32.065Z,10.11
2023-02-25T00:17:34.081Z,10.06
2023-02-25T00:20:39.926Z,10.00
2023-02-25T00:23:43.292Z,9.94
2023-02-25T00:26:45.279Z,9.88
2023-02-25T00:29:52.106Z,9.84
2023-02-25T00:32:53.720Z,9.83
2023-02-25T00:35:55.328Z,9.80
2023-02-25T00:38:57.770Z,9.79
2023-02-25T00:41:59.355Z,9.77
2023-02-25T00:45:00.918Z,9.71
2023-02-25T00:48:02.517Z,9.65
2023-02-25T00:51:05.968Z,9.60
2023-02-25T00:54:07.552Z,9.54
2023-02-25T00:57:09.389Z,9.50
2023-02-25T01:00:16.303Z,9.46
2023-02-25T01:03:18.069Z,9.43
2023-02-25T01:06:20.011Z,9.40
2023-02-25T01:09:22.422Z,9.37
2023-02-25T01:12:24.090Z,9.33
2023-02-25T01:15:30.789Z,9.30
2023-02-25T01:18:34.671Z,9.25
2023-02-25T01:21:38.866Z,9.19
2023-02-25T01:24:40.344Z,9.16
2023-02-25T01:27:41.996Z,9.12
2023-02-25T01:30:45.037Z,9.12
2023-02-25T01:33:46.882Z,9.11
2023-02-25T01:36:49.091Z,9.10
2023-02-25T01:39:50.761Z,9.09
2023-02-25T01:42:52.906Z,9.05
2023-02-25T01:45:56.409Z,8.98
2023-02-25T01:48:58.370Z,8.91
2023-02-25T01:52:09.885Z,8.81
2023-02-25T01:55:11.658Z,8.71
2023-02-25T01:58:13.523Z,8.66
2023-02-25T02:01:19.357Z,8.60
2023-02-25T02:04:22.290Z,8.54
2023-02-25T02:07:24.855Z,8.50
2023-02-25T02:10:26.540Z,8.46
2023-02-25T02:13:29.642Z,8.32
2023-02-25T02:16:41.356Z,8.19
2023-02-25T02:19:52.178Z,8.01
2023-02-25T02:23:12.348Z,7.79
2023-02-25T02:26:16.936Z,7.59
2023-02-25T02:29:27.101Z,7.45
2023-02-25T02:32:48.353Z,7.39
2023-02-25T02:36:08.485Z,7.33
2023-02-25T02:39:39.070Z,7.23
2023-02-25T02:43:49.471Z,7.19
2023-02-25T02:47:25.913Z,7.20
2023-02-25T02:50:30.879Z,7.22
2023-02-25T02:53:37.232Z,7.21
2023-02-25T02:56:40.736Z,7.19
2023-02-25T02:59:47.692Z,7.17
2023-02-25T03:02:52.929Z,7.13
2023-02-25T03:05:54.850Z,7.10
2023-02-25T03:09:03.542Z,7.09
2023-02-25T03:12:07.767Z,7.05
2023-02-25T03:15:10.151Z,7.02
2023-02-25T03:18:39.412Z,7.01
2023-02-25T03:21:49.608Z,7.01
2023-02-25T03:24:55.813Z,7.02
2023-02-25T03:28:03.653Z,7.06
2023-02-25T03:31:09.689Z,7.11
2023-02-25T03:34:21.592Z,7.17
2023-02-25T03:37:26.585Z,7.21
2023-02-25T03:40:28.951Z,7.26
2023-02-25T03:43:36.149Z,7.32
2023-02-25T03:46:39.681Z,7.38
2023-02-25T03:49:47.267Z,7.38
2023-02-25T03:52:48.906Z,7.39
2023-02-25T03:56:09.254Z,7.39
2023-02-25T03:59:11.238Z,7.41
2023-02-25T04:02:15.821Z,7.41
2023-02-25T04:05:19.742Z,7.40
2023-02-25T04:08:21.631Z,7.35
2023-02-25T04:11:23.231Z,7.31
2023-02-25T04:14:25.145Z,7.28
2023-02-25T04:17:26.807Z,7.29
2023-02-25T04:20:29.899Z,7.30
2023-02-25T04:23:31.543Z,7.32
2023-02-25T04:26:34.406Z,7.35
2023-02-25T04:29:36.042Z,7.40
2023-02-25T04:32:37.807Z,7.45
2023-02-25T04:35:39.678Z,7.47
2023-02-25T04:38:42.388Z,7.51
2023-02-25T04:41:44.491Z,7.55
2023-02-25T04:44:46.368Z,7.61
2023-02-25T04:47:47.972Z,7.65
2023-02-25T04:50:49.658Z,7.67
2023-02-25T04:53:51.392Z,7.72
2023-02-25T04:56:52.983Z,7.76
2023-02-25T04:59:54.573Z,7.80
2023-02-25T05:02:56.548Z,7.84
2023-02-25T05:05:58.357Z,7.83
2023-02-25T05:08:59.945Z,7.80
2023-02-25T05:12:02.116Z,7.72
2023-02-25T05:15:05.258Z,7.69
2023-02-25T05:18:07.141Z,7.67
2023-02-25T05:21:14.651Z,7.63
2023-02-25T05:24:16.620Z,7.59
2023-02-25T05:27:18.174Z,7.55
2023-02-25T05:30:19.826Z,7.51
2023-02-25T05:33:21.421Z,7.46
2023-02-25T05:36:25.828Z,7.38
2023-02-25T05:39:29.166Z,7.29
2023-02-25T05:42:30.731Z,7.22
2023-02-25T05:45:32.536Z,7.17
2023-02-25T05:48:34.036Z,7.12
2023-02-25T05:51:35.560Z,7.12
2023-02-25T05:54:37.128Z,7.11
2023-02-25T05:57:38.717Z,7.08
2023-02-25T06:00:40.445Z,7.00
2023-02-25T06:03:43.688Z,6.90
2023-02-25T06:06:50.388Z,6.86
2023-02-25T06:09:52.177Z,6.83
2023-02-25T06:12:53.788Z,6.79
2023-02-25T06:15:55.484Z,6.76
2023-02-25T06:18:57.210Z,6.71
2023-02-25T06:21:58.793Z,6.63
2023-02-25T06:25:00.353Z,6.50
2023-02-25T06:28:02.454Z,6.43
2023-02-25T06:31:11.081Z,6.39
2023-02-25T06:34:12.785Z,6.38
2023-02-25T06:37:16.383Z,6.38
2023-02-25T06:40:18.399Z,6.40
2023-02-25T06:43:19.916Z,6.42
2023-02-25T06:46:24.157Z,6.40
2023-02-25T06:49:25.903Z,6.39
2023-02-25T06:52:27.528Z,6.37
2023-02-25T06:55:29.106Z,6.37
2023-02-25T06:58:30.660Z,6.40
2023-02-25T07:01:32.284Z,6.45
2023-02-25T07:04:34.045Z,6.57
2023-02-25T07:07:35.592Z,6.72
2023-02-25T07:10:37.173Z,6.91
2023-02-25T07:13:38.762Z,7.08
2023-02-25T07:16:40.563Z,7.20
2023-02-25T07:19:42.132Z,7.33
2023-02-25T07:22:43.966Z,7.46
2023-02-25T07:25:46.854Z,7.60
2023-02-25T07:28:48.413Z,7.74
2023-02-25T07:31:50.093Z,7.89
2023-02-25T07:34:51.695Z,8.04
2023-02-25T07:37:53.248Z,8.20
2023-02-25T07:40:54.866Z,8.38
2023-02-25T07:43:56.531Z,8.58
2023-02-25T07:46:58.284Z,8.79
2023-02-25T07:49:59.861Z,8.99
2023-02-25T07:53:01.429Z,9.19
2023-02-25T07:56:03.109Z,9.40
2023-02-25T07:59:04.635Z,9.58
2023-02-25T08:02:06.404Z,9.76
2023-02-25T08:05:09.184Z,9.92
2023-02-25T08:08:10.700Z,10.06
2023-02-25T08:11:13.771Z,10.18
2023-02-25T08:14:15.401Z,10.28
2023-02-25T08:17:17.472Z,10.37
2023-02-25T08:20:19.130Z,10.44
2023-02-25T08:23:20.698Z,10.51
2023-02-25T08:26:23.793Z,10.57
2023-02-25T08:29:25.591Z,10.64
2023-02-25T08:32:27.636Z,10.70
2023-02-25T08:35:29.218Z,10.77
2023-02-25T08:38:30.789Z,10.82
2023-02-25T08:41:32.448Z,10.87
2023-02-25T08:44:33.957Z,10.91
2023-02-25T08:47:37.417Z,10.95
2023-02-25T08:50:38.976Z,11.00
2023-02-25T08:53:41.111Z,11.05
2023-02-25T08:56:46.044Z,11.12
2023-02-25T08:59:48.782Z,11.20
2023-02-25T09:02:50.383Z,11.30
2023-02-25T09:05:56.005Z,11.37
2023-02-25T09:08:57.943Z,11.45
2023-02-25T09:12:00.208Z,11.53
2023-02-25T09:15:02.565Z,11.60
2023-02-25T09:18:04.576Z,11.66
2023-02-25T09:21:07.335Z,11.70
2023-02-25T09:24:09.317Z,11.73
2023-02-25T09:27:10.921Z,11.79
2023-02-25T09:30:12.976Z,11.85
2023-02-25T09:33:14.877Z,11.91
2023-02-25T09:36:19.029Z,12.00
2023-02-25T09:39:20.620Z,12.09
2023-02-25T09:42:23.645Z,12.18
2023-02-25T09:45:26.474Z,12.30
2023-02-25T09:48:32.090Z,12.42
2023-02-25T09:51:37.076Z,12.51
2023-02-25T09:54:44.617Z,12.61
2023-02-25T09:58:02.955Z,12.72
2023-02-25T10:01:10.476Z,12.83
2023-02-25T10:04:30.462Z,12.93
2023-02-25T10:07:35.960Z,13.01
2023-02-25T10:10:53.008Z,13.07
2023-02-25T10:13:59.872Z,13.18
2023-02-25T10:17:27.342Z,13.29
2023-02-25T10:20:49.425Z,13.41
2023-02-25T10:24:03.225Z,13.52
2023-02-25T10:27:17.362Z,13.65
2023-02-25T10:30:59.723Z,13.78
2023-02-25T10:34:18.387Z,13.91
2023-02-25T10:37:26.991Z,14.01
2023-02-25T10:40:31.557Z,14.12
2023-02-25T10:43:34.457Z,14.26
2023-02-25T10:46:39.044Z,14.37
2023-02-25T10:49:40.703Z,14.46
2023-02-25T10:53:01.906Z,14.53
2023-02-25T10:56:04.114Z,14.63
2023-02-25T10:59:24.534Z,14.71
2023-02-25T11:02:28.729Z,14.79
2023-02-25T11:05:31.564Z,14.87
2023-02-25T11:08:33.345Z,14.99
2023-02-25T11:11:39.141Z,15.07
2023-02-25T11:14:40.766Z,15.11
2023-02-25T11:17:44.270Z,15.14
2023-02-25T11:20:56.650Z,15.20
2023-02-25T11:24:05.213Z,15.26
2023-02-25T11:27:08.111Z,15.33
2023-02-25T11:30:12.367Z,15.39
2023-02-25T11:33:34.924Z,15.49
2023-02-25T11:36:38.925Z,15.61
2023-02-25T11:39:52.346Z,15.75
2023-02-25T11:43:01.321Z,15.95
2023-02-25T11:46:08.448Z,16.13
2023-02-25T11:49:10.503Z,16.34
2023-02-25T11:52:33.905Z,16.44
2023-02-25T11:55:35.480Z,16.54
2023-02-25T11:58:52.318Z,16.65
2023-02-25T12:02:15.598Z,16.80
2023-02-25T12:05:32.260Z,16.94
2023-02-25T12:09:05.723Z,17.10
2023-02-25T12:12:17.608Z,17.22
2023-02-25T12:15:45.225Z,17.30
2023-02-25T12:19:11.499Z,17.42
2023-02-25T12:22:16.126Z,17.48
2023-02-25T12:25:28.607Z,17.53
2023-02-25T12:28:45.575Z,17.65
2023-02-25T12:32:16.444Z,17.82
2023-02-25T12:35:30.152Z,17.92
2023-02-25T12:38:55.984Z,17.96
2023-02-25T12:42:25.527Z,18.05
2023-02-25T12:45:33.034Z,18.13
2023-02-25T12:48:56.274Z,18.15
2023-02-25T12:52:35.622Z,18.12
2023-02-25T12:55:57.092Z,18.08
2023-02-25T12:59:01.401Z,18.12
2023-02-25T13:02:20.043Z,18.17
2023-02-25T13:05:52.719Z,18.19
2023-02-25T13:09:12.397Z,18.24
2023-02-25T13:12:47.029Z,18.21
2023-02-25T13:15:54.571Z,18.15
2023-02-25T13:19:26.728Z,18.09
2023-02-25T13:22:34.479Z,17.95
2023-02-25T13:26:08.550Z,17.84
2023-02-25T13:29:33.917Z,17.73
2023-02-25T13:33:00.326Z,17.67
2023-02-25T13:36:25.315Z,17.61
2023-02-25T13:39:45.814Z,17.59
2023-02-25T13:43:03.702Z,17.57
2023-02-25T13:46:28.568Z,17.54
2023-02-25T13:50:07.902Z,17.49
2023-02-25T13:53:32.376Z,17.40
2023-02-25T13:57:06.565Z,17.29
2023-02-25T14:00:42.121Z,17.22
2023-02-25T14:04:05.446Z,17.24
2023-02-25T14:07:22.016Z,17.29
2023-02-25T14:10:45.135Z,17.31
2023-02-25T14:14:13.409Z,17.32
2023-02-25T14:17:59.199Z,17.35
2023-02-25T14:21:09.295Z,17.38
2023-02-25T14:24:32.207Z,17.37
2023-02-25T14:27:41.934Z,17.32
2023-02-25T14:31:07.389Z,17.33
2023-02-25T14:34:27.851Z,17.33
2023-02-25T14:37:34.917Z,17.34
2023-02-25T14:40:42.531Z,17.30
2023-02-25T14:43:46.797Z,17.27
2023-02-25T14:46:52.975Z,17.23
2023-02-25T14:50:03.541Z,17.15
2023-02-25T14:53:35.932Z,17.09
2023-02-25T14:56:51.363Z,17.07
2023-02-25T15:00:30.974Z,17.07
2023-02-25T15:04:00.472Z,17.06
2023-02-25T15:07:15.369Z,17.06
2023-02-25T15:10:30.097Z,17.00
2023-02-25T15:13:34.822Z,16.96
2023-02-25T15:16:42.550Z,16.89
2023-02-25T15:20:04.462Z,16.88
2023-02-25T15:23:11.728Z,16.91
2023-02-25T15:26:21.761Z,16.91
2023-02-25T15:29:29.316Z,16.88
2023-02-25T15:32:46.819Z,16.82
2023-02-25T15:35:48.323Z,16.79
2023-02-25T15:38:51.811Z,16.77
2023-02-25T15:42:03.770Z,16.73
2023-02-25T15:45:29.359Z,16.72
2023-02-25T15:48:33.753Z,16.72
2023-02-25T15:51:44.537Z,16.69
2023-02-25T15:54:47.198Z,16.62
2023-02-25T15:57:48.857Z,16.56
2023-02-25T16:01:05.966Z,16.52
2023-02-25T16:04:50.284Z,16.47
2023-02-25T16:08:03.224Z,16.43
2023-02-25T16:11:06.822Z,16.38
2023-02-25T16:14:15.689Z,16.32
2023-02-25T16:17:28.867Z,16.24
2023-02-25T16:20:34.277Z,16.20
2023-02-25T16:23:40.046Z,16.15
2023-02-25T16:27:04.524Z,16.09
2023-02-25T16:30:26.086Z,16.00
2023-02-25T16:33:44.625Z,15.93
2023-02-25T16:37:11.621Z,15.85
2023-02-25T16:40:40.258Z,15.75
2023-02-25T16:43:43.444Z,15.65
2023-02-25T16:46:50.182Z,15.57
2023-02-25T16:49:53.354Z,15.49
2023-02-25T16:52:55.407Z,15.41
2023-02-25T16:55:58.855Z,15.32
2023-02-25T16:59:21.773Z,15.24
2023-02-25T17:02:25.106Z,15.13
2023-02-25T17:05:26.617Z,15.03
2023-02-25T17:08:28.382Z,14.95
2023-02-25T17:11:30.417Z,14.84
2023-02-25T17:14:32.224Z,14.74
2023-02-25T17:17:37.262Z,14.63
2023-02-25T17:20:39.991Z,14.52
2023-02-25T17:23:42.035Z,14.43
2023-02-25T17:26:46.185Z,14.35
2023-02-25T17:29:48.887Z,14.27
2023-02-25T17:32:58.940Z,14.18
2023-02-25T17:36:12.126Z,14.11
2023-02-25T17:39:20.934Z,14.02
2023-02-25T17:42:34.791Z,13.95
2023-02-25T17:45:39.186Z,13.90
2023-02-25T17:48:43.347Z,13.84
2023-02-25T17:51:46.054Z,13.78
2023-02-25T17:54:53.732Z,13.75
2023-02-25T17:57:58.170Z,13.69
2023-02-25T18:01:02.834Z,13.65
2023-02-25T18:04:06.073Z,13.60
2023-02-25T18:07:23.200Z,13.53
2023-02-25T18:10:30.884Z,13.45
2023-02-25T18:13:37.350Z,13.39
2023-02-25T18:16:41.163Z,13.34
2023-02-25T18:19:46.008Z,13.26
2023-02-25T18:22:48.686Z,13.14
2023-02-25T18:26:09.627Z,13.08
2023-02-25T18:29:20.594Z,13.06
2023-02-25T18:32:22.146Z,13.06
2023-02-25T18:35:24.187Z,13.05
2023-02-25T18:38:27.042Z,13.01
2023-02-25T18:41:28.703Z,12.96
2023-02-25T18:44:30.235Z,12.92
2023-02-25T18:47:31.797Z,12.88
2023-02-25T18:50:33.594Z,12.84
2023-02-25T18:53:35.314Z,12.79
2023-02-25T18:56:36.864Z,12.73
2023-02-25T18:59:38.402Z,12.68
2023-02-25T19:02:47.811Z,12.56
2023-02-25T19:05:49.425Z,12.44
2023-02-25T19:08:51.057Z,12.39
2023-02-25T19:11:52.711Z,12.38
2023-02-25T19:14:59.788Z,12.37
2023-02-25T19:18:01.411Z,12.34
2023-02-25T19:21:04.008Z,12.31
2023-02-25T19:24:06.344Z,12.26
2023-02-25T19:27:27.508Z,12.20
2023-02-25T19:30:31.313Z,12.17
2023-02-25T19:33:33.773Z,12.16
2023-02-25T19:36:35.354Z,12.15
2023-02-25T19:39:36.900Z,12.14
2023-02-25T19:42:39.511Z,12.13
2023-02-25T19:45:41.168Z,12.11
2023-02-25T19:48:43.392Z,12.10
2023-02-25T19:51:44.994Z,12.09
2023-02-25T19:54:46.576Z,12.07
2023-02-25T19:57:48.370Z,12.06
2023-02-25T20:00:50.025Z,12.05
2023-02-25T20:03:52.220Z,12.06
2023-02-25T20:06:53.807Z,12.06
2023-02-25T20:09:55.308Z,12.06
2023-02-25T20:12:56.898Z,12.06
2023-02-25T20:16:01.865Z,12.10
2023-02-25T20:19:03.546Z,12.13
2023-02-25T20:22:06.198Z,12.15
2023-02-25T20:25:09.990Z,12.16
2023-02-25T20:28:11.772Z,12.14
2023-02-25T20:31:16.288Z,12.10
2023-02-25T20:34:21.553Z,12.06
2023-02-25T20:37:24.728Z,12.02
2023-02-25T20:40:26.587Z,11.99
2023-02-25T20:43:28.402Z,11.97
2023-02-25T20:46:30.028Z,11.95
2023-02-25T20:49:31.688Z,11.95
2023-02-25T20:52:33.349Z,11.92
2023-02-25T20:55:34.920Z,11.88
2023-02-25T20:58:36.665Z,11.88
2023-02-25T21:01:38.340Z,11.88
2023-02-25T21:04:39.992Z,11.91
2023-02-25T21:07:41.657Z,11.89
2023-02-25T21:10:43.475Z,11.87
2023-02-25T21:13:47.884Z,11.85
2023-02-25T21:16:54.301Z,11.85
2023-02-25T21:19:55.918Z,11.85
2023-02-25T21:22:57.520Z,11.85
2023-02-25T21:25:59.040Z,11.84
2023-02-25T21:29:00.640Z,11.83
2023-02-25T21:32:02.257Z,11.81
2023-02-25T21:35:04.358Z,11.80
2023-02-25T21:38:05.921Z,11.80
2023-02-25T21:41:10.840Z,11.79
2023-02-25T21:44:12.759Z,11.78
2023-02-25T21:47:14.486Z,11.78
2023-02-25T21:50:16.445Z,11.77
2023-02-25T21:53:18.652Z,11.78
2023-02-25T21:56:20.200Z,11.77
2023-02-25T21:59:23.322Z,11.76
2023-02-25T22:02:25.784Z,11.70
2023-02-25T22:05:27.362Z,11.63
2023-02-25T22:08:28.886Z,11.60
2023-02-25T22:11:32.640Z,11.56
2023-02-25T22:14:34.374Z,11.54
2023-02-25T22:17:36.494Z,11.53
2023-02-25T22:20:38.039Z,11.51
2023-02-25T22:23:40.963Z,11.49
2023-02-25T22:26:42.534Z,11.48
2023-02-25T22:29:44.046Z,11.47
2023-02-25T22:32:45.582Z,11.48
2023-02-25T22:35:58.382Z,11.45
2023-02-25T22:39:04.138Z,11.43
2023-02-25T22:42:05.759Z,11.42
2023-02-25T22:45:07.866Z,11.39
2023-02-25T22:48:09.459Z,11.37
2023-02-25T22:51:11.870Z,11.34
2023-02-25T22:54:15.608Z,11.31
2023-02-25T22:57:17.179Z,11.29
2023-02-25T23:00:19.770Z,11.27
2023-02-25T23:03:21.749Z,11.26
2023-02-25T23:06:37.532Z,11.25
2023-02-25T23:09:45.810Z,11.27
2023-02-25T23:12:47.676Z,11.29
2023-02-25T23:15:49.629Z,11.33
2023-02-25T23:18:51.775Z,11.35
2023-02-25T23:21:53.312Z,11.33
2023-02-25T23:24:55.097Z,11.30
2023-02-25T23:27:57.836Z,11.27
2023-02-25T23:30:59.752Z,11.23
2023-02-25T23:34:04.116Z,11.19
2023-02-25T23:37:05.677Z,11.17
2023-02-25T23:40:11.720Z,11.16
2023-02-25T23:43:13.276Z,11.17
2023-02-25T23:46:14.900Z,11.18
2023-02-25T23:49:17.554Z,11.18
2023-02-25T23:52:19.094Z,11.17
2023-02-25T23:55:21.277Z,11.17
2023-02-25T23:58:22.855Z,11.16
